Time;durP1;ratioP1;P1;durP2;ratioP2;P2;SDS_P1;SDS_P2;PMS_P1;PMS_P2;Temp;Humidity;BMP_temperature;BMP_pressure;BME280_temperature;BME280_humidity;BME280_pressure;Samples;Min_cycle;Max_cycle;Signal;HPM_P1;HPM_P2
2023/01/25 00:00:10;;;;;;;0.10;0.10;;;;;;;3.93;64.88;103917.88;5048489;28;20040;-80
2023/01/25 00:02:36;;;;;;;0.20;0.20;;;;;;;3.93;64.88;103911.72;5049224;28;20044;-80
2023/01/25 00:05:03;;;;;;;1.45;1.30;;;;;;;3.90;64.81;103907.22;5050548;28;20036;-79
2023/01/25 00:07:29;;;;;;;0.50;0.50;;;;;;;3.89;64.51;103908.03;5046512;28;20025;-79
2023/01/25 00:09:55;;;;;;;0.45;0.45;;;;;;;3.89;64.65;103906.28;5038135;28;20133;-78
2023/01/25 00:12:21;;;;;;;0.30;0.30;;;;;;;3.91;64.79;103903.75;5037640;28;20243;-80
2023/01/25 00:14:47;;;;;;;0.40;0.40;;;;;;;3.92;64.53;103895.06;5032562;28;20541;-81
2023/01/25 00:17:13;;;;;;;0.10;0.10;;;;;;;3.95;64.68;103894.34;5044342;28;20096;-80
2023/01/25 00:19:39;;;;;;;0.90;0.90;;;;;;;3.96;64.52;103890.91;5035765;28;20033;-81
2023/01/25 00:22:05;;;;;;;1.63;1.52;;;;;;;3.97;64.94;103884.84;5035388;28;20025;-80
2023/01/25 00:24:31;;;;;;;0.15;0.15;;;;;;;3.96;64.77;103885.66;5035368;28;20032;-80
2023/01/25 00:26:58;;;;;;;0.10;0.10;;;;;;;3.95;64.36;103879.53;5045856;28;20143;-83
2023/01/25 00:29:24;;;;;;;0.20;0.20;;;;;;;3.94;64.41;103882.94;5046131;28;20029;-79
2023/01/25 00:32:06;;;;;;;0.93;0.93;;;;;;;3.97;64.80;103879.59;5050063;28;20025;-79
2023/01/25 00:37:23;;;;;;;0.10;0.10;;;;;;;3.96;64.61;103865.59;5109802;27;1178278;-79
2023/01/25 00:39:50;;;;;;;0.10;0.10;;;;;;;3.94;64.80;103861.03;5133838;27;20490;-79
2023/01/25 00:42:18;;;;;;;0.22;0.22;;;;;;;3.89;64.62;103864.31;5126319;27;20023;-81
2023/01/25 00:44:44;;;;;;;0.30;0.30;;;;;;;3.85;64.57;103869.31;5119983;27;20055;-81
2023/01/25 00:47:11;;;;;;;0.25;0.25;;;;;;;3.81;64.05;103860.34;5126041;27;20022;-79
2023/01/25 00:49:39;;;;;;;0.10;0.10;;;;;;;3.76;64.54;103864.44;5128444;27;20034;-78
2023/01/25 00:52:06;;;;;;;0.10;0.10;;;;;;;3.79;64.77;103861.09;5124501;28;20116;-79
2023/01/25 00:54:32;;;;;;;0.17;0.17;;;;;;;3.80;64.94;103869.06;5124364;28;20420;-81
2023/01/25 00:56:58;;;;;;;0.20;0.20;;;;;;;3.79;64.39;103861.09;5114650;27;20036;-80
2023/01/25 00:59:25;;;;;;;0.10;0.10;;;;;;;3.80;64.41;103863.81;5115268;28;20106;-79
2023/01/25 01:01:52;;;;;;;0.20;0.20;;;;;;;3.81;64.28;103865.59;5116279;28;20530;-78
2023/01/25 01:04:19;;;;;;;0.10;0.10;;;;;;;3.78;64.17;103854.94;5113229;28;20142;-78
2023/01/25 01:06:45;;;;;;;0.30;0.30;;;;;;;3.74;64.03;103863.47;5116857;28;20026;-78
2023/01/25 01:09:14;;;;;;;0.20;0.20;;;;;;;3.72;64.46;103859.84;5122865;28;20103;-78
2023/01/25 01:11:40;;;;;;;0.10;0.10;;;;;;;3.72;64.25;103854.59;5122492;28;20024;-78
2023/01/25 01:14:06;;;;;;;0.38;0.38;;;;;;;3.70;64.23;103857.13;5127015;28;20027;-78
2023/01/25 01:16:33;;;;;;;0.55;0.55;;;;;;;3.68;64.40;103855.25;5127628;28;20039;-78
2023/01/25 01:18:59;;;;;;;0.15;0.15;;;;;;;3.68;64.49;103850.00;5122300;27;20055;-78
2023/01/25 01:21:26;;;;;;;0.75;0.75;;;;;;;3.68;64.20;103852.63;5121898;28;20051;-80
2023/01/25 01:23:54;;;;;;;5.95;0.85;;;;;;;3.64;64.32;103846.31;5125272;28;20031;-80
2023/01/25 01:26:20;;;;;;;0.30;0.30;;;;;;;3.63;64.82;103852.34;5124302;28;20118;-79
2023/01/25 01:28:46;;;;;;;0.20;0.20;;;;;;;3.60;64.09;103854.81;5125651;28;20035;-82
2023/01/25 01:31:16;;;;;;;0.22;0.22;;;;;;;3.58;64.39;103850.25;5127554;28;20028;-80
2023/01/25 01:33:42;;;;;;;0.95;0.95;;;;;;;3.52;64.87;103850.84;5131037;28;20027;-78
2023/01/25 01:38:46;;;;;;;0.10;0.10;;;;;;;3.53;65.06;103856.16;5083704;28;20324;-78
2023/01/25 01:41:13;;;;;;;0.10;0.10;;;;;;;3.52;65.10;103846.47;5076832;28;20032;-80
2023/01/25 01:43:39;;;;;;;0.38;0.38;;;;;;;3.54;64.63;103850.09;5083405;28;20032;-79
2023/01/25 01:46:28;;;;;;;0.10;0.10;;;;;;;3.61;64.55;103850.47;5086335;28;20070;-80
2023/01/25 01:54:26;;;;;;;0.10;0.10;;;;;;;3.56;64.47;103853.72;5077972;27;20403;-81
2023/01/25 01:59:47;;;;;;;0.20;0.20;;;;;;;3.56;64.82;103858.97;5108630;27;1176630;-79
2023/01/25 02:02:14;;;;;;;0.40;0.40;;;;;;;3.51;64.39;103855.16;5127871;28;20030;-80
2023/01/25 02:04:44;;;;;;;0.20;0.20;;;;;;;3.51;64.39;103855.16;5124859;27;20080;-82
2023/01/25 02:07:19;;;;;;;0.10;0.10;;;;;;;3.55;64.47;103857.16;5123775;28;20367;-81
2023/01/25 02:09:47;;;;;;;0.47;0.47;;;;;;;3.53;65.00;103843.06;5129497;28;20031;-79
2023/01/25 02:12:14;;;;;;;0.10;0.10;;;;;;;3.56;64.96;103850.19;5131779;27;20023;-82
2023/01/25 02:14:48;;;;;;;0.30;0.30;;;;;;;3.55;64.91;103851.00;5130481;27;20036;-81
2023/01/25 02:17:14;;;;;;;0.10;0.10;;;;;;;3.52;64.57;103851.72;5125514;28;20028;-79
2023/01/25 02:19:53;;;;;;;0.10;0.10;;;;;;;3.53;64.43;103837.81;5123482;27;20368;-79
2023/01/25 02:22:24;;;;;;;2.40;2.30;;;;;;;3.53;64.26;103839.53;5124555;28;20502;-78
2023/01/25 02:25:01;;;;;;;1.13;1.13;;;;;;;3.52;64.69;103840.34;5118095;28;20228;-79
2023/01/25 02:27:28;;;;;;;0.65;0.65;;;;;;;3.44;64.70;103837.28;5120441;28;20031;-77
2023/01/25 02:29:54;;;;;;;0.47;0.47;;;;;;;3.44;64.78;103837.28;5125735;27;20502;-78
2023/01/25 02:32:23;;;;;;;8.15;1.08;;;;;;;3.46;64.95;103834.75;5124345;28;20035;-79
2023/01/25 02:34:49;;;;;;;1.35;0.65;;;;;;;3.43;64.92;103826.69;5128160;28;20023;-79
2023/01/25 02:37:15;;;;;;;0.45;0.35;;;;;;;3.44;64.59;103828.50;5123215;28;20111;-79
2023/01/25 02:39:42;;;;;;;0.10;0.10;;;;;;;3.44;64.62;103821.56;5124710;28;20791;-78
2023/01/25 02:42:08;;;;;;;0.68;0.68;;;;;;;3.46;64.91;103821.66;5125437;27;20638;-77
2023/01/25 02:44:35;;;;;;;0.35;0.35;;;;;;;3.48;64.62;103820.91;5125618;27;20402;-78
2023/01/25 02:47:01;;;;;;;0.20;0.20;;;;;;;3.49;64.61;103827.97;5126682;27;20027;-81
2023/01/25 02:49:27;;;;;;;0.10;0.10;;;;;;;3.45;64.47;103818.13;5128182;28;20027;-81
2023/01/25 02:51:56;;;;;;;0.57;0.57;;;;;;;3.45;64.40;103817.22;5126919;28;20023;-81
2023/01/25 02:54:24;;;;;;;0.30;0.30;;;;;;;3.40;64.62;103819.56;5125023;27;20023;-81
2023/01/25 02:56:50;;;;;;;0.20;0.20;;;;;;;3.39;64.15;103809.91;5123402;28;20500;-80
2023/01/25 02:59:17;;;;;;;0.10;0.10;;;;;;;3.37;64.62;103808.91;5130298;28;20027;-80
2023/01/25 03:01:44;;;;;;;0.10;0.10;;;;;;;3.37;64.34;103804.56;5125871;27;20111;-81
2023/01/25 03:04:11;;;;;;;0.35;0.35;;;;;;;3.36;64.20;103804.47;5126910;28;20043;-82
2023/01/25 03:06:38;;;;;;;0.70;0.70;;;;;;;3.34;64.58;103798.25;5127810;28;20080;-80
2023/01/25 03:09:07;;;;;;;0.20;0.20;;;;;;;3.29;64.04;103805.84;5124304;27;20103;-81
2023/01/25 03:11:33;;;;;;;0.20;0.20;;;;;;;3.26;64.58;103799.53;5113788;28;20036;-78
2023/01/25 03:14:00;;;;;;;0.20;0.20;;;;;;;3.22;64.18;103798.44;5113297;28;20504;-81
2023/01/25 03:16:26;;;;;;;0.55;0.55;;;;;;;3.19;64.89;103793.94;5114004;28;20032;-80
2023/01/25 03:18:54;;;;;;;0.47;0.47;;;;;;;3.20;64.56;103795.75;5112274;28;20027;-80
2023/01/25 03:21:21;;;;;;;0.10;0.10;;;;;;;3.22;64.96;103787.97;5111201;28;20146;-80
2023/01/25 03:23:53;;;;;;;0.20;0.20;;;;;;;3.22;64.67;103788.84;5109504;28;20031;-80
2023/01/25 03:26:21;;;;;;;0.20;0.20;;;;;;;3.24;64.63;103789.84;5109380;28;20118;-81
2023/01/25 03:28:47;;;;;;;0.82;0.82;;;;;;;3.23;64.48;103788.06;5110634;28;20034;-81
2023/01/25 03:31:16;;;;;;;2.60;2.40;;;;;;;3.23;64.59;103780.19;5114064;28;20039;-81
2023/01/25 03:33:42;;;;;;;0.75;0.70;;;;;;;3.24;64.24;103774.13;5115041;28;20086;-80
2023/01/25 03:36:09;;;;;;;0.22;0.22;;;;;;;3.28;64.37;103774.31;5112722;28;20380;-80
2023/01/25 03:38:35;;;;;;;0.30;0.30;;;;;;;3.28;64.42;103769.06;5107485;28;20058;-82
2023/01/25 03:41:03;;;;;;;0.30;0.30;;;;;;;3.29;64.89;103774.41;5109108;28;20031;-79
2023/01/25 03:43:30;;;;;;;0.13;0.13;;;;;;;3.23;64.77;103769.72;5105622;28;20039;-78
2023/01/25 03:45:58;;;;;;;0.10;0.10;;;;;;;3.22;64.60;103767.91;5113216;28;20087;-80
2023/01/25 03:48:26;;;;;;;0.45;0.45;;;;;;;3.20;64.52;103766.00;5108508;28;20104;-82
2023/01/25 03:50:54;;;;;;;0.20;0.20;;;;;;;3.21;64.66;103759.97;5109882;28;20027;-80
2023/01/25 03:53:28;;;;;;;0.20;0.20;;;;;;;3.16;64.79;103759.69;5105799;28;20031;-79
2023/01/25 03:55:58;;;;;;;0.50;0.50;;;;;;;3.17;64.89;103763.22;5108959;28;20552;-81
2023/01/25 03:58:24;;;;;;;2.70;2.50;;;;;;;3.17;65.06;103752.75;5110016;28;20024;-79
2023/01/25 04:00:53;;;;;;;0.90;0.85;;;;;;;3.18;64.73;103755.44;5109448;28;20417;-78
2023/01/25 04:03:20;;;;;;;0.20;0.20;;;;;;;3.20;64.54;103759.06;5110047;28;20032;-78
2023/01/25 04:05:46;;;;;;;0.20;0.20;;;;;;;3.20;64.35;103756.44;5112209;28;20038;-78
2023/01/25 04:08:13;;;;;;;0.20;0.20;;;;;;;3.21;64.75;103755.59;5103037;28;20251;-76
2023/01/25 04:10:39;;;;;;;0.20;0.20;;;;;;;3.20;64.48;103756.44;5101464;28;20054;-81
2023/01/25 04:13:05;;;;;;;0.35;0.35;;;;;;;3.20;64.44;103758.13;5111567;28;20066;-79
2023/01/25 04:15:31;;;;;;;0.75;0.75;;;;;;;3.22;64.57;103756.53;5105394;28;20511;-80
2023/01/25 04:17:57;;;;;;;1.10;1.10;;;;;;;3.22;64.33;103760.03;5104657;28;20552;-79
2023/01/25 04:20:24;;;;;;;0.10;0.10;;;;;;;3.15;64.38;103754.34;5110561;28;20024;-78
2023/01/25 04:22:50;;;;;;;0.20;0.20;;;;;;;3.15;64.81;103749.13;5099742;28;20035;-81
2023/01/25 04:25:16;;;;;;;0.20;0.20;;;;;;;3.12;64.60;103749.84;5106135;28;20502;-80
2023/01/25 04:27:42;;;;;;;0.30;0.30;;;;;;;3.12;64.59;103755.09;5101001;28;20103;-79
2023/01/25 04:30:09;;;;;;;0.20;0.20;;;;;;;3.10;64.59;103754.09;5112890;28;20023;-81
2023/01/25 04:32:35;;;;;;;1.30;1.27;;;;;;;3.07;64.96;103744.34;5107601;28;20446;-81
2023/01/25 04:35:02;;;;;;;0.68;0.68;;;;;;;3.04;64.95;103751.09;5108078;28;20030;-80
2023/01/25 04:37:28;;;;;;;0.95;0.95;;;;;;;3.04;65.03;103743.25;5111584;28;20038;-80
2023/01/25 04:39:54;;;;;;;0.30;0.30;;;;;;;2.98;65.31;103737.66;5112757;28;20106;-79
2023/01/25 04:42:20;;;;;;;0.20;0.20;;;;;;;3.02;64.83;103739.66;5116474;28;20032;-80
2023/01/25 04:44:46;;;;;;;0.20;0.20;;;;;;;3.01;64.74;103730.88;5116307;28;20055;-80
2023/01/25 04:47:12;;;;;;;0.55;0.55;;;;;;;3.01;65.13;103730.00;5116051;28;20027;-81
2023/01/25 04:49:38;;;;;;;0.70;0.70;;;;;;;3.03;65.20;103736.22;5115775;28;20035;-81
2023/01/25 04:52:04;;;;;;;0.35;0.35;;;;;;;3.01;65.10;103724.75;5110533;28;20066;-80
2023/01/25 04:54:30;;;;;;;0.20;0.20;;;;;;;3.02;65.12;103721.31;5116651;28;20366;-80
2023/01/25 04:56:56;;;;;;;0.20;0.20;;;;;;;3.00;65.23;103723.81;5114999;28;20031;-81
2023/01/25 04:59:22;;;;;;;0.20;0.20;;;;;;;3.03;64.99;103720.50;5115116;28;20063;-80
2023/01/25 05:01:48;;;;;;;0.95;0.95;;;;;;;3.01;64.95;103724.75;5115435;28;20035;-80
2023/01/25 05:04:14;;;;;;;0.28;0.28;;;;;;;2.97;64.75;103718.44;5116030;28;20024;-80
2023/01/25 05:06:40;;;;;;;0.38;0.38;;;;;;;2.96;64.72;103720.97;5101607;28;20031;-80
2023/01/25 05:09:08;;;;;;;0.40;0.40;;;;;;;2.97;65.14;103721.06;5106356;28;20032;-81
2023/01/25 05:11:34;;;;;;;0.20;0.20;;;;;;;2.94;64.63;103717.34;5105300;28;20043;-81
2023/01/25 05:14:00;;;;;;;0.20;0.20;;;;;;;2.94;64.49;103722.59;5111520;28;20046;-80
2023/01/25 05:16:26;;;;;;;0.68;0.68;;;;;;;2.94;64.60;103717.34;5112908;28;20058;-80
2023/01/25 05:18:54;;;;;;;0.20;0.20;;;;;;;2.95;64.77;103719.16;5108545;28;20380;-81
2023/01/25 05:24:07;;;;;;;0.40;0.40;;;;;;;2.93;64.75;103716.47;5102248;28;20067;-80
2023/01/25 05:27:04;;;;;;;0.73;0.73;;;;;;;2.95;64.46;103719.16;5110517;28;20031;-80
2023/01/25 05:29:19;;;;;;;1.58;1.48;;;;;;;2.96;64.79;103713.13;5114979;28;20050;-83
2023/01/25 05:31:45;;;;;;;0.20;0.20;;;;;;;2.97;64.83;103705.34;5129948;28;20062;-81
2023/01/25 05:34:11;;;;;;;0.50;0.50;;;;;;;2.99;65.12;103710.66;5118615;28;20050;-78
2023/01/25 05:36:38;;;;;;;0.20;0.20;;;;;;;2.99;64.68;103710.66;5104975;28;20028;-78
2023/01/25 05:39:05;;;;;;;1.15;1.15;;;;;;;3.01;64.85;103714.28;5099556;28;20028;-79
2023/01/25 05:41:31;;;;;;;0.30;0.30;;;;;;;2.98;64.77;103711.47;5105856;28;20039;-80
2023/01/25 05:43:57;;;;;;;0.20;0.20;;;;;;;2.98;64.62;103708.84;5111413;28;20072;-81
2023/01/25 05:46:25;;;;;;;0.10;0.10;;;;;;;2.98;64.64;103709.75;5111637;28;20398;-80
2023/01/25 05:48:51;;;;;;;2.38;2.08;;;;;;;2.97;64.62;103712.31;5106233;28;20513;-80
2023/01/25 05:51:17;;;;;;;0.10;0.10;;;;;;;2.95;64.65;103713.91;5106786;28;20044;-79
2023/01/25 05:53:43;;;;;;;0.95;0.95;;;;;;;2.92;64.56;103707.69;5099967;28;20027;-79
2023/01/25 05:56:09;;;;;;;15.32;3.40;;;;;;;2.90;64.80;103711.94;5110434;28;20038;-81
2023/01/25 05:58:37;;;;;;;4.40;2.63;;;;;;;2.89;64.93;103715.38;5113723;28;20072;-81
2023/01/25 06:01:05;;;;;;;0.20;0.20;;;;;;;2.88;64.79;103713.56;5101861;28;20020;-80
2023/01/25 06:03:31;;;;;;;0.28;0.28;;;;;;;2.87;65.05;103708.25;5101367;28;20063;-81
2023/01/25 06:06:01;;;;;;;0.10;0.10;;;;;;;2.83;64.69;103704.53;5107935;28;20533;-81
2023/01/25 06:08:28;;;;;;;0.10;0.10;;;;;;;2.80;64.79;103711.31;5111662;28;20023;-80
2023/01/25 06:10:54;;;;;;;0.40;0.40;;;;;;;2.80;64.71;103713.94;5108725;28;20074;-80
2023/01/25 06:13:21;;;;;;;0.15;0.15;;;;;;;2.78;64.66;103713.84;5111773;28;20031;-81
2023/01/25 06:15:56;;;;;;;0.20;0.20;;;;;;;2.83;64.79;103714.09;5103869;28;20104;-80
2023/01/25 06:18:24;;;;;;;0.40;0.40;;;;;;;2.74;64.75;103715.38;5114056;28;20027;-80
2023/01/25 06:20:50;;;;;;;0.10;0.10;;;;;;;2.73;64.87;103718.81;5109939;28;20031;-81
2023/01/25 06:23:16;;;;;;;0.43;0.43;;;;;;;2.70;64.60;103720.34;5113695;28;20028;-80
2023/01/25 06:25:43;;;;;;;0.38;0.38;;;;;;;2.66;64.66;103723.59;5113141;28;20031;-79
2023/01/25 06:28:09;;;;;;;0.30;0.30;;;;;;;2.67;64.93;103722.78;5112668;28;20023;-81
2023/01/25 06:30:35;;;;;;;4.68;2.28;;;;;;;2.66;65.01;103720.97;5103006;28;20131;-80
2023/01/25 06:33:02;;;;;;;0.10;0.10;;;;;;;2.67;64.96;103725.41;5104327;28;20443;-81
2023/01/25 06:35:29;;;;;;;0.28;0.28;;;;;;;2.66;64.96;103715.75;5110996;28;20074;-80
2023/01/25 06:37:56;;;;;;;0.10;0.10;;;;;;;2.66;64.97;103720.97;5112365;28;20020;-80
2023/01/25 06:40:23;;;;;;;0.20;0.20;;;;;;;2.66;64.98;103715.75;5113863;28;20126;-80
2023/01/25 06:42:49;;;;;;;0.20;0.20;;;;;;;2.61;64.91;103717.19;5113599;28;20028;-79
2023/01/25 06:45:15;;;;;;;0.20;0.20;;;;;;;2.57;64.76;103709.13;5111466;28;20088;-80
2023/01/25 06:47:41;;;;;;;1.13;0.95;;;;;;;2.53;64.91;103712.41;5118925;28;20074;-81
2023/01/25 06:50:09;;;;;;;0.10;0.10;;;;;;;2.53;65.03;103717.63;5106948;28;20379;-83
2023/01/25 06:52:35;;;;;;;0.20;0.20;;;;;;;2.52;64.92;103718.44;5115113;28;20106;-80
2023/01/25 06:55:04;;;;;;;0.80;0.80;;;;;;;2.52;64.97;103714.94;5111010;28;20055;-80
2023/01/25 06:57:30;;;;;;;0.10;0.10;;;;;;;2.46;64.72;103712.84;5118478;28;20378;-80
2023/01/25 06:59:56;;;;;;;1.05;1.05;;;;;;;2.45;65.21;103713.63;5104979;28;20082;-80
2023/01/25 07:02:22;;;;;;;0.25;0.25;;;;;;;2.41;64.90;103714.28;5112222;28;20032;-80
2023/01/25 07:04:48;;;;;;;0.10;0.10;;;;;;;2.37;64.75;103718.41;5107493;28;20402;-79
2023/01/25 07:07:14;;;;;;;3.03;2.83;;;;;;;2.35;65.08;103703.44;5108696;28;20031;-80
2023/01/25 07:09:40;;;;;;;1.85;1.20;;;;;;;2.34;65.09;103707.75;5112858;28;20032;-81
2023/01/25 07:12:07;;;;;;;0.20;0.20;;;;;;;2.37;65.31;103707.97;5134458;28;20079;-83
2023/01/25 07:14:33;;;;;;;0.35;0.35;;;;;;;2.40;65.33;103708.13;5138976;28;20023;-81
2023/01/25 07:16:59;;;;;;;0.20;0.20;;;;;;;2.43;65.58;103703.09;5122070;28;20039;-81
2023/01/25 07:19:25;;;;;;;0.20;0.20;;;;;;;2.48;65.59;103706.00;5113620;28;20093;-82
2023/01/25 07:21:51;;;;;;;0.20;0.20;;;;;;;2.52;65.36;103704.47;5113980;28;20044;-81
2023/01/25 07:24:19;;;;;;;0.20;0.20;;;;;;;2.53;65.50;103712.41;5111784;28;20035;-81
2023/01/25 07:26:46;;;;;;;0.20;0.20;;;;;;;2.51;65.15;103706.16;5120243;28;20083;-79
2023/01/25 07:29:14;;;;;;;0.85;0.85;;;;;;;2.55;65.36;103708.13;5109642;28;20097;-81
2023/01/25 07:31:40;;;;;;;0.20;0.20;;;;;;;2.59;65.30;103704.91;5118259;28;20028;-79
2023/01/25 07:34:10;;;;;;;0.25;0.25;;;;;;;2.65;65.55;103693.00;5117797;28;20039;-81
2023/01/25 07:36:37;;;;;;;0.50;0.50;;;;;;;2.64;65.20;103693.78;5114015;28;20032;-81
2023/01/25 07:39:04;;;;;;;0.17;0.17;;;;;;;2.66;64.94;103689.56;5115237;28;20020;-79
2023/01/25 07:41:31;;;;;;;0.10;0.10;;;;;;;2.67;65.09;103680.91;5118652;28;20032;-78
2023/01/25 07:43:57;;;;;;;1.35;1.35;;;;;;;2.70;65.03;103684.56;5108480;28;20498;-79
2023/01/25 07:46:23;;;;;;;0.17;0.17;;;;;;;2.73;65.31;103686.50;5117419;28;20445;-78
2023/01/25 07:48:51;;;;;;;0.20;0.20;;;;;;;2.75;64.99;103680.53;5116360;28;20035;-80
2023/01/25 07:51:23;;;;;;;1.00;1.00;;;;;;;2.79;65.11;103680.69;5117723;28;20368;-81
2023/01/25 07:53:53;;;;;;;0.90;0.90;;;;;;;2.79;64.70;103676.38;5105732;28;20036;-78
2023/01/25 07:56:22;;;;;;;0.50;0.50;;;;;;;2.79;64.80;103665.00;5106107;28;20214;-79
2023/01/25 07:58:48;;;;;;;1.42;0.80;;;;;;;2.80;64.89;103667.69;5107647;28;20510;-78
2023/01/25 08:01:17;;;;;;;0.10;0.10;;;;;;;2.82;64.85;103663.44;5103957;28;20302;-80
2023/01/25 08:03:44;;;;;;;0.20;0.20;;;;;;;2.81;64.74;103652.91;5114029;28;20031;-80
2023/01/25 08:06:11;;;;;;;0.22;0.22;;;;;;;2.81;64.74;103663.38;5116441;28;20016;-81
2023/01/25 08:08:44;;;;;;;3.17;2.90;;;;;;;2.81;64.68;103663.38;5111354;28;20699;-83
2023/01/25 08:11:14;;;;;;;0.32;0.32;;;;;;;2.79;64.56;103671.16;5107984;28;20024;-83
2023/01/25 08:13:45;;;;;;;0.43;0.43;;;;;;;2.73;64.35;103666.44;5103217;28;20097;-80
2023/01/25 08:16:13;;;;;;;0.40;0.40;;;;;;;2.72;64.59;103659.41;5110256;28;20040;-80
2023/01/25 08:18:39;;;;;;;0.68;0.68;;;;;;;2.69;64.42;103658.31;5103396;28;20438;-80
2023/01/25 08:21:05;;;;;;;2.22;1.38;;;;;;;2.66;64.59;103659.03;5112491;28;20039;-81
2023/01/25 08:23:33;;;;;;;0.10;0.10;;;;;;;2.69;64.80;103667.09;5110617;28;20039;-79
2023/01/25 08:26:03;;;;;;;0.45;0.45;;;;;;;2.74;65.09;103665.63;5103128;28;20048;-81
2023/01/25 08:28:29;;;;;;;0.63;0.63;;;;;;;2.73;64.76;103665.56;5109828;28;20046;-82
2023/01/25 08:31:04;;;;;;;0.15;0.15;;;;;;;2.78;64.54;103661.47;5109049;28;20031;-79
2023/01/25 08:33:30;;;;;;;0.22;0.22;;;;;;;2.78;65.19;103664.09;5109304;28;20034;-79
2023/01/25 08:35:57;;;;;;;0.30;0.30;;;;;;;2.82;64.93;103671.31;5103026;28;20035;-80
2023/01/25 08:38:23;;;;;;;0.10;0.10;;;;;;;2.85;64.61;103661.00;5103868;28;20047;-80
2023/01/25 08:40:49;;;;;;;1.95;1.58;;;;;;;2.88;65.07;103660.28;5108639;28;20042;-81
2023/01/25 08:43:15;;;;;;;0.98;0.75;;;;;;;2.88;64.99;103655.06;5124234;28;20065;-82
2023/01/25 08:45:41;;;;;;;0.50;0.50;;;;;;;2.87;64.57;103654.13;5130977;28;20031;-83
2023/01/25 08:48:08;;;;;;;0.20;0.20;;;;;;;2.80;64.86;103646.75;5123360;28;20035;-81
2023/01/25 08:50:34;;;;;;;2.33;1.15;;;;;;;2.77;65.03;103646.56;5112216;28;20114;-81
2023/01/25 08:53:00;;;;;;;6.20;1.33;;;;;;;2.78;65.03;103648.38;5104445;28;20028;-80
2023/01/25 08:55:26;;;;;;;0.20;0.20;;;;;;;2.74;65.05;103649.94;5104232;28;20057;-81
2023/01/25 08:57:52;;;;;;;0.13;0.13;;;;;;;2.77;65.07;103656.13;5116481;28;20024;-82
2023/01/25 09:00:18;;;;;;;0.77;0.77;;;;;;;2.78;65.12;103640.53;5103748;28;20483;-80
2023/01/25 09:02:44;;;;;;;1.65;1.40;;;;;;;2.83;64.99;103636.47;5117221;28;20514;-80
2023/01/25 09:05:11;;;;;;;1.55;1.55;;;;;;;2.87;65.21;103640.16;5114881;28;20036;-82
2023/01/25 09:07:38;;;;;;;0.70;0.70;;;;;;;2.90;64.79;103638.63;5106284;28;20055;-81
2023/01/25 09:10:07;;;;;;;0.45;0.45;;;;;;;2.95;65.00;103630.09;5106657;28;20028;-81
2023/01/25 09:12:34;;;;;;;0.10;0.10;;;;;;;2.94;64.74;103631.84;5115553;28;20032;-80
2023/01/25 09:15:01;;;;;;;0.20;0.20;;;;;;;2.97;64.32;103634.63;5115663;28;20027;-80
2023/01/25 09:17:27;;;;;;;0.70;0.70;;;;;;;2.99;64.59;103626.84;5112647;28;20094;-79
2023/01/25 09:19:53;;;;;;;0.10;0.10;;;;;;;3.02;64.46;103632.25;5108219;28;20027;-81
2023/01/25 09:22:19;;;;;;;2.75;0.73;;;;;;;3.06;64.26;103631.59;5114356;28;20088;-79
2023/01/25 09:24:45;;;;;;;0.20;0.20;;;;;;;3.01;64.71;103633.06;5111245;28;20032;-80
2023/01/25 09:27:12;;;;;;;0.47;0.47;;;;;;;3.04;64.97;103635.84;5116252;28;20032;-81
2023/01/25 09:29:38;;;;;;;0.75;0.75;;;;;;;2.98;64.54;103636.44;5109479;28;20024;-82
2023/01/25 09:32:04;;;;;;;0.50;0.50;;;;;;;3.01;65.00;103638.31;5113845;28;20080;-82
2023/01/25 09:34:30;;;;;;;0.30;0.30;;;;;;;2.98;64.49;103625.94;5106537;28;20028;-80
2023/01/25 09:36:56;;;;;;;0.90;0.90;;;;;;;2.97;64.77;103626.75;5116430;28;20043;-82
2023/01/25 09:39:22;;;;;;;1.15;1.15;;;;;;;2.96;64.82;103621.44;5113127;28;20035;-79
2023/01/25 09:45:02;;;;;;;0.45;0.45;;;;;;;3.07;65.06;103612.47;5068547;28;20399;-78
2023/01/25 09:50:33;;;;;;;2.55;2.45;;;;;;;3.05;64.94;103608.84;5144300;27;20913;-80
2023/01/25 09:53:31;;;;;;;0.35;0.35;;;;;;;3.07;64.66;103610.72;5129887;27;20030;-79
2023/01/25 09:56:09;;;;;;;1.35;0.63;;;;;;;3.07;64.53;103620.31;5114813;28;20051;-80
2023/01/25 09:58:41;;;;;;;1.83;1.75;;;;;;;3.07;64.51;103605.50;5098745;28;20025;-82
2023/01/25 10:01:24;;;;;;;1.00;1.00;;;;;;;3.10;65.08;103589.03;5091889;28;20024;-80
2023/01/25 10:03:58;;;;;;;1.02;0.95;;;;;;;3.14;64.84;103591.03;5099119;28;20031;-80
2023/01/25 10:06:37;;;;;;;0.10;0.10;;;;;;;3.14;64.96;103591.03;5115980;28;20032;-82
2023/01/25 10:09:22;;;;;;;0.20;0.20;;;;;;;3.19;64.44;103589.56;5100531;28;20372;-81
2023/01/25 10:11:48;;;;;;;0.40;0.40;;;;;;;3.15;64.84;103582.34;5106814;28;20062;-82
2023/01/25 10:14:18;;;;;;;0.60;0.55;;;;;;;3.19;64.76;103579.09;5112919;28;20040;-81
2023/01/25 10:16:57;;;;;;;1.42;1.40;;;;;;;3.19;64.70;103568.59;5102395;28;20091;-81
2023/01/25 10:19:52;;;;;;;0.30;0.30;;;;;;;3.21;64.36;103566.06;5109619;28;20018;-79
2023/01/25 10:22:23;;;;;;;2.22;0.82;;;;;;;3.14;64.69;103554.34;5133500;28;20042;-80
2023/01/25 10:25:18;;;;;;;0.28;0.28;;;;;;;3.20;64.97;103553.78;5124645;28;20522;-81
2023/01/25 10:28:00;;;;;;;0.32;0.32;;;;;;;3.22;64.62;103557.38;5103539;28;20027;-79
2023/01/25 10:30:30;;;;;;;0.43;0.43;;;;;;;3.28;65.00;103556.81;5103943;28;20023;-80
2023/01/25 10:33:01;;;;;;;0.13;0.13;;;;;;;3.24;64.22;103551.41;5101013;28;20055;-80
2023/01/25 10:35:35;;;;;;;3.63;3.30;;;;;;;3.23;64.27;103559.19;5100663;28;20032;-79
2023/01/25 10:38:12;;;;;;;0.65;0.65;;;;;;;3.22;64.76;103560.00;5101445;28;20024;-82
2023/01/25 10:40:45;;;;;;;0.20;0.20;;;;;;;3.24;64.36;103554.03;5101747;28;20110;-80
2023/01/25 10:43:18;;;;;;;1.13;1.02;;;;;;;3.24;64.39;103546.16;5104566;28;20028;-80
2023/01/25 10:45:44;;;;;;;1.65;1.58;;;;;;;3.19;64.00;103542.41;5104165;28;20023;-80
2023/01/25 10:48:18;;;;;;;0.45;0.45;;;;;;;3.21;63.94;103540.75;5100394;28;20039;-80
2023/01/25 10:50:47;;;;;;;0.93;0.93;;;;;;;3.22;64.19;103537.31;5105274;28;20040;-79
2023/01/25 10:53:34;;;;;;;0.30;0.30;;;;;;;3.19;64.06;103526.69;5105427;28;20548;-81
2023/01/25 10:59:07;;;;;;;2.05;1.95;;;;;;;3.10;64.03;103518.31;5132365;27;20471;-80
2023/01/25 11:01:35;;;;;;;0.25;0.25;;;;;;;3.06;64.61;103513.72;5101177;28;20079;-79
2023/01/25 11:04:02;;;;;;;0.40;0.40;;;;;;;3.10;64.98;103509.56;5110653;28;20076;-80
2023/01/25 11:06:35;;;;;;;0.55;0.43;;;;;;;3.19;64.50;103507.41;5097224;28;20024;-79
2023/01/25 11:12:39;;;;;;;1.02;0.93;;;;;;;3.23;64.59;103489.34;5048952;28;20414;-80
2023/01/25 11:15:23;;;;;;;0.10;0.10;;;;;;;3.32;64.14;103488.03;5035597;28;20037;-81
2023/01/25 11:18:05;;;;;;;1.65;0.95;;;;;;;3.28;63.81;103483.44;5036207;28;20030;-79
2023/01/25 11:20:31;;;;;;;0.22;0.22;;;;;;;3.19;63.72;103481.22;5039748;28;20036;-81
2023/01/25 11:23:00;;;;;;;7.43;5.25;;;;;;;3.21;63.65;103472.63;5038575;28;20029;-80
2023/01/25 11:25:30;;;;;;;0.20;0.20;;;;;;;3.19;64.32;103469.03;5044959;28;20489;-81
2023/01/25 11:28:17;;;;;;;0.32;0.32;;;;;;;3.30;63.82;103460.84;5049436;28;20029;-79
2023/01/25 11:30:44;;;;;;;0.82;0.82;;;;;;;3.26;63.78;103458.88;5043845;28;20037;-81
2023/01/25 11:33:13;;;;;;;0.10;0.10;;;;;;;3.30;64.23;103448.66;5044124;28;20029;-81
2023/01/25 11:36:04;;;;;;;0.50;0.50;;;;;;;3.29;64.07;103440.69;5045584;28;20043;-81
2023/01/25 11:38:31;;;;;;;0.10;0.10;;;;;;;3.24;63.88;103430.00;5047634;28;20033;-80
2023/01/25 11:41:24;;;;;;;0.88;0.80;;;;;;;3.37;63.64;103421.91;5045656;28;20028;-82
2023/01/25 11:43:57;;;;;;;;;;;;;;;3.44;63.54;103412.66;5038803;28;20036;-80
2023/01/25 11:49:47;;;;;;;0.10;0.10;;;;;;;3.39;63.73;103396.69;5101363;27;20335;-81
2023/01/25 11:52:45;;;;;;;3.72;1.08;;;;;;;3.41;63.78;103381.03;5104403;28;20084;-82
2023/01/25 11:55:25;;;;;;;0.73;0.73;;;;;;;3.41;63.40;103370.56;5094041;28;20114;-81
2023/01/25 12:00:49;;;;;;;0.50;0.50;;;;;;;3.39;63.24;103362.63;5106939;27;1188978;-80
2023/01/25 12:03:48;;;;;;;1.00;1.00;;;;;;;3.37;63.89;103364.25;5137361;28;20280;-80
2023/01/25 12:06:28;;;;;;;0.20;0.20;;;;;;;3.30;63.66;103358.63;5126091;28;20020;-82
2023/01/25 12:12:01;;;;;;;0.60;0.60;;;;;;;3.42;64.03;103333.06;5102001;27;20382;-82
2023/01/25 12:17:39;;;;;;;1.38;1.30;;;;;;;3.40;64.14;103322.50;5110918;27;20414;-79
2023/01/25 12:23:25;;;;;;;0.20;0.20;;;;;;;3.30;63.66;103314.09;5062028;28;20394;-81
2023/01/25 12:28:43;;;;;;;0.35;0.35;;;;;;;3.27;64.08;103313.97;5080868;27;20397;-81